sensor_id;sensor_type;location;lat;lon;timestamp;pressure;altitude;pressure_sealevel;temperature;humidity
75923;BME280;64602;47.542;19.090;2024-02-21T00:00:26;101136.56;;;7.46;83.82
75923;BME280;64602;47.542;19.090;2024-02-21T00:05:28;101113.94;;;7.40;83.73
75923;BME280;64602;47.542;19.090;2024-02-21T00:10:30;101111.00;;;7.48;83.36
75923;BME280;64602;47.542;19.090;2024-02-21T00:15:35;101111.19;;;7.47;82.64
75923;BME280;64602;47.542;19.090;2024-02-21T00:20:38;101101.22;;;7.47;82.28
75923;BME280;64602;47.542;19.090;2024-02-21T00:25:40;101115.13;;;7.51;82.21
75923;BME280;64602;47.542;19.090;2024-02-21T00:30:42;101109.09;;;7.49;82.29
75923;BME280;64602;47.542;19.090;2024-02-21T00:35:45;101100.63;;;7.45;82.38
75923;BME280;64602;47.542;19.090;2024-02-21T00:40:47;101095.69;;;7.36;82.73
75923;BME280;64602;47.542;19.090;2024-02-21T00:45:49;101088.22;;;7.31;82.21
75923;BME280;64602;47.542;19.090;2024-02-21T00:50:52;101079.91;;;7.26;82.26
75923;BME280;64602;47.542;19.090;2024-02-21T00:55:54;101086.78;;;7.22;82.10
75923;BME280;64602;47.542;19.090;2024-02-21T01:00:56;101101.72;;;7.24;81.61
75923;BME280;64602;47.542;19.090;2024-02-21T01:05:58;101082.44;;;7.14;81.19
75923;BME280;64602;47.542;19.090;2024-02-21T01:11:01;101086.34;;;7.18;80.90
75923;BME280;64602;47.542;19.090;2024-02-21T01:16:03;101087.03;;;7.14;80.61
75923;BME280;64602;47.542;19.090;2024-02-21T01:21:07;101075.19;;;7.01;80.40
75923;BME280;64602;47.542;19.090;2024-02-21T01:26:09;101076.84;;;7.09;80.10
75923;BME280;64602;47.542;19.090;2024-02-21T01:31:15;101090.56;;;7.07;80.13
75923;BME280;64602;47.542;19.090;2024-02-21T01:36:17;101089.72;;;7.14;79.91
75923;BME280;64602;47.542;19.090;2024-02-21T01:41:20;101074.16;;;7.02;79.99
75923;BME280;64602;47.542;19.090;2024-02-21T01:46:23;101069.78;;;7.01;80.10
75923;BME280;64602;47.542;19.090;2024-02-21T01:51:30;101070.22;;;7.05;80.13
75923;BME280;64602;47.542;19.090;2024-02-21T01:56:32;101060.87;;;7.01;80.51
75923;BME280;64602;47.542;19.090;2024-02-21T02:01:35;101061.09;;;6.99;80.95
75923;BME280;64602;47.542;19.090;2024-02-21T02:06:37;101064.44;;;6.95;81.30
75923;BME280;64602;47.542;19.090;2024-02-21T02:11:39;101052.84;;;6.81;81.42
75923;BME280;64602;47.542;19.090;2024-02-21T02:16:42;101066.53;;;6.86;81.68
75923;BME280;64602;47.542;19.090;2024-02-21T02:21:46;101070.91;;;6.80;82.17
75923;BME280;64602;47.542;19.090;2024-02-21T02:26:55;101046.81;;;6.72;82.28
75923;BME280;64602;47.542;19.090;2024-02-21T02:31:57;101066.75;;;6.78;82.37
75923;BME280;64602;47.542;19.090;2024-02-21T02:36:59;101071.34;;;6.71;82.61
75923;BME280;64602;47.542;19.090;2024-02-21T02:42:02;101061.59;;;6.63;82.76
75923;BME280;64602;47.542;19.090;2024-02-21T02:47:04;101061.41;;;6.58;83.17
75923;BME280;64602;47.542;19.090;2024-02-21T02:52:06;101055.56;;;6.54;83.40
75923;BME280;64602;47.542;19.090;2024-02-21T02:57:08;101041.06;;;6.49;83.04
75923;BME280;64602;47.542;19.090;2024-02-21T03:02:11;101053.69;;;6.55;83.23
75923;BME280;64602;47.542;19.090;2024-02-21T03:07:14;101053.31;;;6.51;83.34
75923;BME280;64602;47.542;19.090;2024-02-21T03:12:17;101055.38;;;6.49;83.61
75923;BME280;64602;47.542;19.090;2024-02-21T03:17:29;101059.12;;;6.41;83.68
75923;BME280;64602;47.542;19.090;2024-02-21T03:22:31;101052.06;;;6.34;84.00
75923;BME280;64602;47.542;19.090;2024-02-21T03:27:37;101052.06;;;6.34;83.96
75923;BME280;64602;47.542;19.090;2024-02-21T03:32:39;101063.25;;;6.37;83.55
75923;BME280;64602;47.542;19.090;2024-02-21T03:37:41;101053.09;;;6.26;83.77
75923;BME280;64602;47.542;19.090;2024-02-21T03:42:44;101056.81;;;6.18;84.09
75923;BME280;64602;47.542;19.090;2024-02-21T03:47:46;101059.72;;;6.10;84.11
75923;BME280;64602;47.542;19.090;2024-02-21T03:52:48;101056.19;;;5.96;84.96
75923;BME280;64602;47.542;19.090;2024-02-21T03:57:50;101043.50;;;5.84;85.13
75923;BME280;64602;47.542;19.090;2024-02-21T04:02:52;101055.72;;;5.73;86.00
75923;BME280;64602;47.542;19.090;2024-02-21T04:07:54;101057.94;;;5.63;86.20
75923;BME280;64602;47.542;19.090;2024-02-21T04:12:57;101055.03;;;5.57;86.80
75923;BME280;64602;47.542;19.090;2024-02-21T04:17:59;101064.78;;;5.59;87.15
75923;BME280;64602;47.542;19.090;2024-02-21T04:23:01;101045.06;;;5.45;87.43
75923;BME280;64602;47.542;19.090;2024-02-21T04:28:03;101050.81;;;5.35;88.10
75923;BME280;64602;47.542;19.090;2024-02-21T04:33:06;101044.38;;;5.29;88.40
75923;BME280;64602;47.542;19.090;2024-02-21T04:38:09;101054.13;;;5.37;88.57
75923;BME280;64602;47.542;19.090;2024-02-21T04:43:11;101038.97;;;5.23;88.64
75923;BME280;64602;47.542;19.090;2024-02-21T04:48:13;101058.44;;;5.25;88.61
75923;BME280;64602;47.542;19.090;2024-02-21T04:53:15;101047.22;;;5.21;88.91
75923;BME280;64602;47.542;19.090;2024-02-21T04:58:18;101054.91;;;5.24;89.45
75923;BME280;64602;47.542;19.090;2024-02-21T05:03:20;101049.88;;;5.14;89.86
75923;BME280;64602;47.542;19.090;2024-02-21T05:08:22;101066.88;;;5.22;89.77
75923;BME280;64602;47.542;19.090;2024-02-21T05:13:24;101060.44;;;5.16;89.58
75923;BME280;64602;47.542;19.090;2024-02-21T05:18:27;101056.66;;;5.04;90.38
75923;BME280;64602;47.542;19.090;2024-02-21T05:23:30;101065.97;;;5.01;90.45
75923;BME280;64602;47.542;19.090;2024-02-21T05:28:32;101054.56;;;4.99;90.82
75923;BME280;64602;47.542;19.090;2024-02-21T05:33:34;101066.59;;;5.03;91.14
75923;BME280;64602;47.542;19.090;2024-02-21T05:38:37;101064.91;;;4.96;91.25
75923;BME280;64602;47.542;19.090;2024-02-21T05:43:40;101061.63;;;5.00;91.66
75923;BME280;64602;47.542;19.090;2024-02-21T05:48:42;101062.41;;;4.94;91.38
75923;BME280;64602;47.542;19.090;2024-02-21T05:53:44;101072.59;;;4.99;91.36
75923;BME280;64602;47.542;19.090;2024-02-21T05:58:46;101075.84;;;4.94;91.68
75923;BME280;64602;47.542;19.090;2024-02-21T06:03:48;101082.28;;;4.93;91.75
75923;BME280;64602;47.542;19.090;2024-02-21T06:08:51;101083.94;;;4.94;91.63
75923;BME280;64602;47.542;19.090;2024-02-21T06:13:53;101080.66;;;4.99;91.66
75923;BME280;64602;47.542;19.090;2024-02-21T06:18:55;101080.47;;;5.00;91.45
75923;BME280;64602;47.542;19.090;2024-02-21T06:23:57;101074.22;;;5.00;91.20
75923;BME280;64602;47.542;19.090;2024-02-21T06:29:00;101101.44;;;5.18;91.00
75923;BME280;64602;47.542;19.090;2024-02-21T06:34:02;101079.34;;;5.23;90.39
75923;BME280;64602;47.542;19.090;2024-02-21T06:39:05;101108.37;;;5.41;89.78
75923;BME280;64602;47.542;19.090;2024-02-21T06:44:10;101104.72;;;5.55;88.87
75923;BME280;64602;47.542;19.090;2024-02-21T06:49:12;101108.94;;;5.71;88.13
75923;BME280;64602;47.542;19.090;2024-02-21T06:54:18;101102.16;;;5.88;87.36
75923;BME280;64602;47.542;19.090;2024-02-21T06:59:20;101092.69;;;6.06;86.18
75923;BME280;64602;47.542;19.090;2024-02-21T07:04:22;101097.69;;;6.29;85.01
75923;BME280;64602;47.542;19.090;2024-02-21T07:09:25;101117.19;;;6.57;83.87
75923;BME280;64602;47.542;19.090;2024-02-21T07:14:32;101115.09;;;6.66;82.79
75923;BME280;64602;47.542;19.090;2024-02-21T07:19:34;101131.91;;;6.81;82.21
75923;BME280;64602;47.542;19.090;2024-02-21T07:24:37;101129.19;;;6.88;81.43
75923;BME280;64602;47.542;19.090;2024-02-21T07:29:39;101130.44;;;6.92;80.87
75923;BME280;64602;47.542;19.090;2024-02-21T07:34:42;101139.13;;;7.14;80.13
75923;BME280;64602;47.542;19.090;2024-02-21T07:39:45;101127.91;;;7.17;79.44
75923;BME280;64602;47.542;19.090;2024-02-21T07:44:47;101125.81;;;7.26;79.02
75923;BME280;64602;47.542;19.090;2024-02-21T07:49:49;101147.53;;;7.58;78.77
75923;BME280;64602;47.542;19.090;2024-02-21T07:54:51;101149.06;;;7.85;77.77
75923;BME280;64602;47.542;19.090;2024-02-21T07:59:54;101165.97;;;8.12;76.85
75923;BME280;64602;47.542;19.090;2024-02-21T08:04:56;101158.13;;;8.36;75.56
75923;BME280;64602;47.542;19.090;2024-02-21T08:09:58;101157.94;;;8.69;74.10
75923;BME280;64602;47.542;19.090;2024-02-21T08:15:00;101148.72;;;8.95;72.81
75923;BME280;64602;47.542;19.090;2024-02-21T08:20:04;101141.78;;;9.06;72.10
75923;BME280;64602;47.542;19.090;2024-02-21T08:25:06;101142.53;;;9.13;71.99
75923;BME280;64602;47.542;19.090;2024-02-21T08:30:09;101142.94;;;9.35;70.91
75923;BME280;64602;47.542;19.090;2024-02-21T08:35:11;101136.53;;;9.48;70.25
75923;BME280;64602;47.542;19.090;2024-02-21T08:40:14;101143.44;;;9.62;69.42
75923;BME280;64602;47.542;19.090;2024-02-21T08:45:19;101143.72;;;9.91;68.84
75923;BME280;64602;47.542;19.090;2024-02-21T08:50:22;101141.84;;;10.22;66.99
75923;BME280;64602;47.542;19.090;2024-02-21T08:55:30;101145.13;;;10.54;65.92
75923;BME280;64602;47.542;19.090;2024-02-21T09:00:32;101138.87;;;10.65;65.04
75923;BME280;64602;47.542;19.090;2024-02-21T09:05:34;101128.87;;;10.66;64.07
75923;BME280;64602;47.542;19.090;2024-02-21T09:10:37;101130.84;;;10.82;63.63
75923;BME280;64602;47.542;19.090;2024-02-21T09:15:39;101125.53;;;11.11;62.15
75923;BME280;64602;47.542;19.090;2024-02-21T09:20:41;101122.13;;;11.27;61.53
75923;BME280;64602;47.542;19.090;2024-02-21T09:25:44;101119.47;;;11.44;61.10
75923;BME280;64602;47.542;19.090;2024-02-21T09:30:46;101125.50;;;11.46;60.88
75923;BME280;64602;47.542;19.090;2024-02-21T09:35:48;101117.25;;;11.70;59.78
75923;BME280;64602;47.542;19.090;2024-02-21T09:40:59;101112.06;;;11.80;59.25
75923;BME280;64602;47.542;19.090;2024-02-21T09:46:03;101123.34;;;12.01;57.60
75923;BME280;64602;47.542;19.090;2024-02-21T09:51:07;101122.00;;;12.32;57.04
75923;BME280;64602;47.542;19.090;2024-02-21T09:56:11;101125.84;;;12.65;55.92
75923;BME280;64602;47.542;19.090;2024-02-21T10:01:16;101116.81;;;12.81;54.30
75923;BME280;64602;47.542;19.090;2024-02-21T10:06:34;101129.34;;;12.99;53.28
75923;BME280;64602;47.542;19.090;2024-02-21T10:11:39;101117.06;;;13.79;51.63
75923;BME280;64602;47.542;19.090;2024-02-21T10:16:41;101107.59;;;14.14;49.14
75923;BME280;64602;47.542;19.090;2024-02-21T10:21:44;101111.28;;;15.42;47.60
75923;BME280;64602;47.542;19.090;2024-02-21T10:26:46;101120.75;;;17.46;42.37
75923;BME280;64602;47.542;19.090;2024-02-21T10:31:49;101108.09;;;19.32;39.00
75923;BME280;64602;47.542;19.090;2024-02-21T10:37:02;101099.75;;;17.00;42.09
75923;BME280;64602;47.542;19.090;2024-02-21T10:42:05;101084.59;;;15.75;45.26
75923;BME280;64602;47.542;19.090;2024-02-21T10:47:09;101069.12;;;14.48;48.19
75923;BME280;64602;47.542;19.090;2024-02-21T10:57:48;101064.28;;;13.68;50.86
75923;BME280;64602;47.542;19.090;2024-02-21T11:02:51;101074.25;;;25.69;30.50
75923;BME280;64602;47.542;19.090;2024-02-21T11:07:54;101069.03;;;25.08;29.78
75923;BME280;64602;47.542;19.090;2024-02-21T11:13:09;101067.06;;;29.35;25.60
75923;BME280;64602;47.542;19.090;2024-02-21T11:18:11;101063.87;;;31.16;22.38
75923;BME280;64602;47.542;19.090;2024-02-21T11:23:24;101035.50;;;28.11;24.32
75923;BME280;64602;47.542;19.090;2024-02-21T11:28:26;101030.09;;;32.63;20.49
75923;BME280;64602;47.542;19.090;2024-02-21T11:33:29;101037.19;;;34.73;18.79
75923;BME280;64602;47.542;19.090;2024-02-21T11:38:31;101033.19;;;34.81;17.77
75923;BME280;64602;47.542;19.090;2024-02-21T11:43:33;101010.19;;;29.28;22.77
75923;BME280;64602;47.542;19.090;2024-02-21T11:48:35;101027.06;;;33.41;18.18
75923;BME280;64602;47.542;19.090;2024-02-21T11:53:37;100997.31;;;23.90;27.02
75923;BME280;64602;47.542;19.090;2024-02-21T11:58:51;100981.50;;;20.68;32.76
75923;BME280;64602;47.542;19.090;2024-02-21T12:03:53;100964.97;;;17.72;36.79
75923;BME280;64602;47.542;19.090;2024-02-21T12:08:58;100968.03;;;15.94;40.30
75923;BME280;64602;47.542;19.090;2024-02-21T12:14:01;100951.38;;;14.87;42.36
75923;BME280;64602;47.542;19.090;2024-02-21T12:19:05;100956.19;;;14.27;43.63
75923;BME280;64602;47.542;19.090;2024-02-21T12:24:15;100953.03;;;17.47;37.36
75923;BME280;64602;47.542;19.090;2024-02-21T12:29:18;100951.87;;;14.73;41.78
75923;BME280;64602;47.542;19.090;2024-02-21T12:34:20;100939.22;;;13.82;44.26
75923;BME280;64602;47.542;19.090;2024-02-21T12:39:39;100937.19;;;13.40;45.11
75923;BME280;64602;47.542;19.090;2024-02-21T12:44:41;100934.28;;;13.03;46.61
75923;BME280;64602;47.542;19.090;2024-02-21T12:49:44;100934.38;;;12.86;46.75
75923;BME280;64602;47.542;19.090;2024-02-21T12:54:47;100905.69;;;12.78;46.84
75923;BME280;64602;47.542;19.090;2024-02-21T12:59:49;100918.41;;;12.73;47.23
75923;BME280;64602;47.542;19.090;2024-02-21T13:04:52;100896.69;;;12.56;47.58
75923;BME280;64602;47.542;19.090;2024-02-21T13:09:55;100895.66;;;12.40;48.01
75923;BME280;64602;47.542;19.090;2024-02-21T13:14:57;100890.59;;;12.27;48.18
75923;BME280;64602;47.542;19.090;2024-02-21T13:19:59;100883.88;;;12.34;48.47
75923;BME280;64602;47.542;19.090;2024-02-21T13:25:02;100890.53;;;12.44;48.45
75923;BME280;64602;47.542;19.090;2024-02-21T13:30:05;100883.06;;;12.56;48.27
75923;BME280;64602;47.542;19.090;2024-02-21T13:35:09;100883.66;;;13.07;47.21
75923;BME280;64602;47.542;19.090;2024-02-21T13:40:13;100868.31;;;13.23;46.53
75923;BME280;64602;47.542;19.090;2024-02-21T13:45:15;100867.16;;;13.46;46.12
75923;BME280;64602;47.542;19.090;2024-02-21T13:50:18;100861.22;;;14.34;44.14
75923;BME280;64602;47.542;19.090;2024-02-21T13:55:20;100849.50;;;14.39;42.96
75923;BME280;64602;47.542;19.090;2024-02-21T14:00:24;100842.81;;;14.14;41.68
75923;BME280;64602;47.542;19.090;2024-02-21T14:05:27;100831.84;;;14.04;42.67
75923;BME280;64602;47.542;19.090;2024-02-21T14:10:29;100832.59;;;13.89;42.91
75923;BME280;64602;47.542;19.090;2024-02-21T14:15:31;100850.63;;;13.95;42.96
75923;BME280;64602;47.542;19.090;2024-02-21T14:20:33;100855.88;;;13.64;43.24
75923;BME280;64602;47.542;19.090;2024-02-21T14:25:35;100851.38;;;13.21;43.78
75923;BME280;64602;47.542;19.090;2024-02-21T14:30:38;100835.19;;;13.09;43.84
75923;BME280;64602;47.542;19.090;2024-02-21T14:35:40;100832.22;;;13.38;43.47
75923;BME280;64602;47.542;19.090;2024-02-21T14:40:42;100836.19;;;13.03;43.26
75923;BME280;64602;47.542;19.090;2024-02-21T14:45:44;100828.34;;;12.79;44.30
75923;BME280;64602;47.542;19.090;2024-02-21T14:50:49;100832.63;;;12.97;45.50
75923;BME280;64602;47.542;19.090;2024-02-21T14:55:51;100828.50;;;13.54;45.19
75923;BME280;64602;47.542;19.090;2024-02-21T15:00:54;100820.37;;;14.02;43.18
75923;BME280;64602;47.542;19.090;2024-02-21T15:05:56;100812.34;;;13.15;44.01
75923;BME280;64602;47.542;19.090;2024-02-21T15:10:58;100819.00;;;12.97;44.76
75923;BME280;64602;47.542;19.090;2024-02-21T15:16:01;100810.19;;;12.90;44.89
75923;BME280;64602;47.542;19.090;2024-02-21T15:21:03;100804.41;;;12.59;45.22
75923;BME280;64602;47.542;19.090;2024-02-21T15:26:05;100802.63;;;12.43;45.83
75923;BME280;64602;47.542;19.090;2024-02-21T15:31:08;100798.50;;;12.40;45.91
75923;BME280;64602;47.542;19.090;2024-02-21T15:36:10;100787.91;;;12.00;45.72
75923;BME280;64602;47.542;19.090;2024-02-21T15:41:12;100792.13;;;11.74;45.97
75923;BME280;64602;47.542;19.090;2024-02-21T15:46:17;100791.91;;;11.75;46.63
75923;BME280;64602;47.542;19.090;2024-02-21T15:51:20;100786.50;;;11.59;46.41
75923;BME280;64602;47.542;19.090;2024-02-21T15:56:23;100798.91;;;11.54;46.67
75923;BME280;64602;47.542;19.090;2024-02-21T16:01:25;100792.81;;;11.47;47.44
75923;BME280;64602;47.542;19.090;2024-02-21T16:06:27;100784.59;;;11.42;47.98
75923;BME280;64602;47.542;19.090;2024-02-21T16:11:30;100786.41;;;11.37;47.62
75923;BME280;64602;47.542;19.090;2024-02-21T16:16:32;100786.81;;;11.28;48.56
75923;BME280;64602;47.542;19.090;2024-02-21T16:21:35;100783.63;;;11.15;48.48
75923;BME280;64602;47.542;19.090;2024-02-21T16:26:38;100785.09;;;11.05;49.13
75923;BME280;64602;47.542;19.090;2024-02-21T16:31:40;100780.06;;;10.97;49.03
75923;BME280;64602;47.542;19.090;2024-02-21T16:36:42;100792.34;;;11.00;49.23
75923;BME280;64602;47.542;19.090;2024-02-21T16:41:44;100778.63;;;10.95;49.44
75923;BME280;64602;47.542;19.090;2024-02-21T16:46:46;100779.72;;;10.94;49.18
75923;BME280;64602;47.542;19.090;2024-02-21T16:51:49;100774.44;;;10.87;49.18
75923;BME280;64602;47.542;19.090;2024-02-21T16:56:51;100789.75;;;10.93;49.70
75923;BME280;64602;47.542;19.090;2024-02-21T17:01:53;100796.25;;;10.92;49.42
75923;BME280;64602;47.542;19.090;2024-02-21T17:06:56;100798.63;;;10.88;49.30
75923;BME280;64602;47.542;19.090;2024-02-21T17:11:58;100800.91;;;10.80;49.61
75923;BME280;64602;47.542;19.090;2024-02-21T17:17:01;100797.72;;;10.83;49.71
75923;BME280;64602;47.542;19.090;2024-02-21T17:22:03;100794.75;;;10.84;49.79
75923;BME280;64602;47.542;19.090;2024-02-21T17:27:05;100787.00;;;10.76;49.50
75923;BME280;64602;47.542;19.090;2024-02-21T17:32:07;100773.84;;;10.68;49.33
75923;BME280;64602;47.542;19.090;2024-02-21T17:37:10;100780.28;;;10.79;49.67
75923;BME280;64602;47.542;19.090;2024-02-21T17:42:12;100771.44;;;10.72;49.48
75923;BME280;64602;47.542;19.090;2024-02-21T17:47:14;100761.09;;;10.68;49.54
75923;BME280;64602;47.542;19.090;2024-02-21T17:52:17;100753.69;;;10.64;49.40
75923;BME280;64602;47.542;19.090;2024-02-21T17:57:19;100756.38;;;10.64;49.54
75923;BME280;64602;47.542;19.090;2024-02-21T18:02:21;100748.75;;;10.61;49.03
75923;BME280;64602;47.542;19.090;2024-02-21T18:07:26;100754.25;;;10.66;49.20
75923;BME280;64602;47.542;19.090;2024-02-21T18:12:29;100746.97;;;10.55;49.18
75923;BME280;64602;47.542;19.090;2024-02-21T18:17:31;100746.41;;;10.53;48.83
75923;BME280;64602;47.542;19.090;2024-02-21T18:22:35;100739.56;;;10.50;48.92
75923;BME280;64602;47.542;19.090;2024-02-21T18:27:37;100734.78;;;10.40;48.95
75923;BME280;64602;47.542;19.090;2024-02-21T18:32:40;100730.16;;;10.41;49.34
75923;BME280;64602;47.542;19.090;2024-02-21T18:37:43;100744.31;;;10.43;50.09
75923;BME280;64602;47.542;19.090;2024-02-21T18:42:46;100735.00;;;10.39;50.71
75923;BME280;64602;47.542;19.090;2024-02-21T18:47:48;100733.28;;;10.33;51.25
75923;BME280;64602;47.542;19.090;2024-02-21T18:52:51;100726.69;;;10.29;51.52
75923;BME280;64602;47.542;19.090;2024-02-21T18:57:55;100728.78;;;10.26;51.26
75923;BME280;64602;47.542;19.090;2024-02-21T19:02:57;100711.16;;;10.12;51.44
75923;BME280;64602;47.542;19.090;2024-02-21T19:07:59;100703.75;;;10.08;51.50
75923;BME280;64602;47.542;19.090;2024-02-21T19:13:01;100720.84;;;10.08;51.57
75923;BME280;64602;47.542;19.090;2024-02-21T19:18:04;100716.34;;;10.02;51.61
75923;BME280;64602;47.542;19.090;2024-02-21T19:23:06;100708.47;;;10.00;51.62
75923;BME280;64602;47.542;19.090;2024-02-21T19:28:10;100708.37;;;9.95;51.90
75923;BME280;64602;47.542;19.090;2024-02-21T19:33:15;100701.28;;;9.94;51.79
75923;BME280;64602;47.542;19.090;2024-02-21T19:38:17;100694.13;;;9.88;51.98
75923;BME280;64602;47.542;19.090;2024-02-21T19:43:19;100682.94;;;9.84;52.29
75923;BME280;64602;47.542;19.090;2024-02-21T19:48:21;100690.03;;;9.86;52.90
75923;BME280;64602;47.542;19.090;2024-02-21T19:53:26;100700.63;;;9.75;53.52
75923;BME280;64602;47.542;19.090;2024-02-21T19:58:29;100683.44;;;9.70;53.98
75923;BME280;64602;47.542;19.090;2024-02-21T20:03:34;100669.91;;;9.46;54.67
75923;BME280;64602;47.542;19.090;2024-02-21T20:08:36;100668.53;;;9.32;55.27
75923;BME280;64602;47.542;19.090;2024-02-21T20:13:38;100679.00;;;9.40;55.36
75923;BME280;64602;47.542;19.090;2024-02-21T20:18:42;100676.03;;;9.41;55.55
75923;BME280;64602;47.542;19.090;2024-02-21T20:23:45;100667.47;;;9.33;55.74
75923;BME280;64602;47.542;19.090;2024-02-21T20:28:47;100664.88;;;9.38;55.78
75923;BME280;64602;47.542;19.090;2024-02-21T20:33:49;100658.44;;;9.27;56.26
75923;BME280;64602;47.542;19.090;2024-02-21T20:38:52;100633.69;;;9.12;56.47
75923;BME280;64602;47.542;19.090;2024-02-21T20:43:54;100654.75;;;9.10;56.98
75923;BME280;64602;47.542;19.090;2024-02-21T20:48:56;100642.28;;;8.97;57.23
75923;BME280;64602;47.542;19.090;2024-02-21T20:53:59;100646.16;;;8.89;57.82
75923;BME280;64602;47.542;19.090;2024-02-21T20:59:01;100648.50;;;8.86;58.01
75923;BME280;64602;47.542;19.090;2024-02-21T21:04:03;100648.97;;;8.83;58.23
75923;BME280;64602;47.542;19.090;2024-02-21T21:09:06;100660.87;;;8.82;58.44
75923;BME280;64602;47.542;19.090;2024-02-21T21:14:12;100630.63;;;8.85;58.37
75923;BME280;64602;47.542;19.090;2024-02-21T21:19:14;100642.16;;;8.92;58.69
75923;BME280;64602;47.542;19.090;2024-02-21T21:24:16;100621.31;;;8.81;58.87
75923;BME280;64602;47.542;19.090;2024-02-21T21:29:19;100623.31;;;8.73;59.38
75923;BME280;64602;47.542;19.090;2024-02-21T21:34:21;100630.03;;;8.83;59.32
75923;BME280;64602;47.542;19.090;2024-02-21T21:39:24;100614.03;;;8.69;59.58
75923;BME280;64602;47.542;19.090;2024-02-21T21:44:27;100611.06;;;8.59;60.32
75923;BME280;64602;47.542;19.090;2024-02-21T21:49:29;100610.97;;;8.66;60.29
75923;BME280;64602;47.542;19.090;2024-02-21T21:54:31;100592.59;;;8.44;61.04
75923;BME280;64602;47.542;19.090;2024-02-21T21:59:33;100602.00;;;8.42;61.29
75923;BME280;64602;47.542;19.090;2024-02-21T22:04:36;100611.19;;;8.52;61.33
75923;BME280;64602;47.542;19.090;2024-02-21T22:09:38;100614.72;;;8.53;61.10
75923;BME280;64602;47.542;19.090;2024-02-21T22:14:40;100620.47;;;8.56;60.88
75923;BME280;64602;47.542;19.090;2024-02-21T22:19:42;100597.41;;;8.54;60.48
75923;BME280;64602;47.542;19.090;2024-02-21T22:24:44;100606.37;;;8.54;60.58
75923;BME280;64602;47.542;19.090;2024-02-21T22:29:46;100611.06;;;8.47;61.01
75923;BME280;64602;47.542;19.090;2024-02-21T22:34:49;100602.66;;;8.37;61.52
75923;BME280;64602;47.542;19.090;2024-02-21T22:39:51;100583.69;;;8.13;62.10
75923;BME280;64602;47.542;19.090;2024-02-21T22:44:53;100579.06;;;8.02;62.77
75923;BME280;64602;47.542;19.090;2024-02-21T22:49:55;100568.47;;;8.01;62.79
75923;BME280;64602;47.542;19.090;2024-02-21T22:54:57;100577.53;;;7.95;63.40
75923;BME280;64602;47.542;19.090;2024-02-21T22:59:59;100571.16;;;7.89;63.55
75923;BME280;64602;47.542;19.090;2024-02-21T23:05:02;100546.06;;;7.70;63.60
75923;BME280;64602;47.542;19.090;2024-02-21T23:10:06;100551.88;;;7.55;64.06
75923;BME280;64602;47.542;19.090;2024-02-21T23:15:09;100539.94;;;7.44;64.28
75923;BME280;64602;47.542;19.090;2024-02-21T23:20:12;100545.44;;;7.38;64.74
75923;BME280;64602;47.542;19.090;2024-02-21T23:25:14;100532.44;;;7.16;65.25
75923;BME280;64602;47.542;19.090;2024-02-21T23:30:16;100532.34;;;7.04;65.71
75923;BME280;64602;47.542;19.090;2024-02-21T23:35:18;100526.19;;;6.97;66.07
75923;BME280;64602;47.542;19.090;2024-02-21T23:40:21;100516.22;;;6.98;66.32
75923;BME280;64602;47.542;19.090;2024-02-21T23:45:23;100507.38;;;6.91;66.73
75923;BME280;64602;47.542;19.090;2024-02-21T23:50:26;100500.78;;;6.87;67.05
75923;BME280;64602;47.542;19.090;2024-02-21T23:55:28;100494.34;;;6.88;67.03
